Naniwa Maru No.21 — JG5648 — position and weather

sailwx.info

Track history (hours):
 
Tides and Currents Weather Stations Pressure Air Temp Water Temp Dewpoint Dewpoint Depression Visibility Wind Speed Wind Dir Waves Ship Positions

Naniwa Maru No.21

Last reported at 2014-Dec-22 03:11 UTC. Time now 2014-Dec-22 09:14 UTC.
Position N 34°07' E 135°08'.

Length 71 m; draft 5.2 m.

Type: Tanker. MMSI: 431301595.

Date/timePositionNaut miles runAvg speedWind from/ knotsBaromVisibWave heightAir tempDewpointWater temp
2014-Dec-22 03:11N 34°07' E 135°08'1 1.0
2014-Dec-22 02:33N 34°07' E 135°08'7 7.0
2014-Dec-22 01:32N 34°12' E 135°02'2311.7
2014-Dec-21 23:33N 34°35' E 135°03'9 8.7
2014-Dec-21 22:32N 34°34' E 134°52'22812.0
2014-Dec-21 03:28N 33°48' E 130°22'1010.5
2014-Dec-21 02:33N 33°38' E 130°19'3 3.5
2014-Dec-21 01:33N 33°36' E 130°23'0 0.0
2014-Dec-21 00:32N 33°36' E 130°23'0 0.0
2014-Dec-20 23:33N 33°36' E 130°23'0 0.0
2014-Dec-20 22:33N 33°36' E 130°23'2 1.7
2014-Dec-20 21:33N 33°37' E 130°21'0 0.2
2014-Dec-20 20:32N 33°37' E 130°21'0 0.0
2014-Dec-20 19:33N 33°37' E 130°21'0 0.1
2014-Dec-20 18:33N 33°37' E 130°21'0 0.0
2014-Dec-20 17:32N 33°37' E 130°21'0 0.0
2014-Dec-20 16:31N 33°37' E 130°21'0 0.0
2014-Dec-20 15:33N 33°37' E 130°21'0 0.0
2014-Dec-20 13:33N 33°37' E 130°21'9 8.9
2014-Dec-20 12:30N 33°46' E 130°18'23811.3
2014-Dec-19 15:31N 34°38' E 134°59'8 8.0
2014-Dec-19 14:33N 34°31' E 135°04'1312.6
2014-Dec-19 13:31N 34°19' E 134°60'1211.7
2014-Dec-19 12:30N 34°08' E 135°07'1 0.1
2014-Dec-19 06:26N 34°08' E 135°07'0 0.1
2014-Dec-19 05:33N 34°07' E 135°07'0 0.1
2014-Dec-19 04:34N 34°07' E 135°07'1 0.9
2014-Dec-19 03:33N 34°08' E 135°06'23611.8
2014-Dec-18 07:32N 33°48' E 130°22'10 9.6
2014-Dec-18 06:33N 33°39' E 130°19'5 5.0
2014-Dec-18 05:33N 33°37' E 130°24'0 0.0
2014-Dec-18 04:33N 33°37' E 130°24'0 0.0
2014-Dec-18 03:32N 33°37' E 130°24'0 0.0
2014-Dec-18 02:33N 33°37' E 130°24'0 0.0
2014-Dec-18 01:33N 33°37' E 130°24'0 0.0
2014-Dec-18 00:33N 33°37' E 130°24'0 0.0
2014-Dec-17 23:33N 33°37' E 130°24'0 0.0
2014-Dec-17 22:33N 33°37' E 130°24'0 0.0
2014-Dec-17 21:34N 33°37' E 130°24'0 0.0
2014-Dec-17 20:32N 33°37' E 130°24'0 0.0
2014-Dec-17 19:32N 33°37' E 130°24'0 0.0
2014-Dec-17 18:32N 33°37' E 130°24'0 0.0
2014-Dec-17 17:33N 33°37' E 130°24'0 0.0
2014-Dec-17 16:33N 33°37' E 130°24'0 0.0
2014-Dec-17 15:32N 33°37' E 130°24'0 0.0
2014-Dec-17 14:32N 33°37' E 130°24'0 0.0
2014-Dec-17 13:32N 33°37' E 130°24'0 0.0
2014-Dec-17 12:33N 33°37' E 130°24'0 0.0
2014-Dec-17 11:33N 33°37' E 130°24'0 0.0
2014-Dec-17 10:32N 33°37' E 130°24'0 0.0
2014-Dec-17 09:33N 33°37' E 130°24'0 0.0
2014-Dec-17 08:31N 33°37' E 130°24'0 0.0
2014-Dec-17 07:32N 33°37' E 130°24'0 0.0
2014-Dec-17 06:34N 33°37' E 130°24'0 0.0
2014-Dec-17 05:32N 33°37' E 130°24'0 0.0
2014-Dec-17 04:32N 33°37' E 130°24'0 0.0
2014-Dec-17 03:33N 33°37' E 130°24'0 0.0
2014-Dec-17 02:33N 33°37' E 130°24'0 0.0
2014-Dec-17 01:33N 33°37' E 130°24'0 0.0
2014-Dec-17 00:29N 33°37' E 130°24'0 0.0
2014-Dec-16 23:33N 33°37' E 130°24'0 0.0
2014-Dec-16 22:32N 33°37' E 130°24'0 0.0
2014-Dec-16 21:33N 33°37' E 130°24'0 0.0
2014-Dec-16 20:33N 33°37' E 130°24'0 0.0
2014-Dec-16 19:32N 33°37' E 130°24'0 0.0
2014-Dec-16 18:32N 33°37' E 130°24'0 0.0
2014-Dec-16 17:32N 33°37' E 130°24'0 0.0
2014-Dec-16 16:33N 33°37' E 130°24'0 0.0
2014-Dec-16 15:33N 33°37' E 130°24'0 0.0
2014-Dec-16 14:33N 33°37' E 130°24'0 0.0
2014-Dec-16 13:32N 33°37' E 130°24'0 0.0
2014-Dec-16 12:32N 33°37' E 130°24'0 0.0
2014-Dec-16 11:32N 33°37' E 130°24'0 0.0
2014-Dec-16 10:33N 33°37' E 130°24'0 0.0
2014-Dec-16 09:30N 33°37' E 130°24'0 0.0
2014-Dec-16 08:33N 33°37' E 130°24'0 0.0
2014-Dec-16 07:33N 33°37' E 130°24'0 0.0
2014-Dec-16 06:33N 33°37' E 130°24'1 1.3
2014-Dec-16 05:33N 33°37' E 130°23'1 1.4
2014-Dec-16 04:30N 33°37' E 130°21'0 0.2
2014-Dec-16 03:31N 33°37' E 130°21'2 1.4
2014-Dec-16 02:09N 33°36' E 130°23'0 0.0
2014-Dec-16 01:09N 33°36' E 130°23'0 0.0
2014-Dec-16 00:07N 33°36' E 130°23'0 0.0
2014-Dec-15 23:32N 33°36' E 130°23'1 0.6
2014-Dec-15 22:33N 33°37' E 130°23'2 1.7
2014-Dec-15 21:33N 33°37' E 130°21'0 0.0
2014-Dec-15 20:33N 33°37' E 130°21'0 0.0
2014-Dec-15 19:27N 33°37' E 130°21'0 0.0
2014-Dec-15 18:33N 33°37' E 130°21'0 0.0
2014-Dec-15 17:33N 33°37' E 130°21'0 0.0
2014-Dec-15 16:30N 33°37' E 130°21'0 0.0
2014-Dec-15 15:30N 33°37' E 130°21'0 0.0
2014-Dec-15 14:30N 33°37' E 130°21'3 3.3
2014-Dec-15 13:33N 33°39' E 130°18'1211.6
2014-Dec-15 12:33N 33°50' E 130°20'  
2014-Dec-12 13:17N 33°37' E 130°21'0 0.0
2014-Dec-12 12:17N 33°37' E 130°21'0 0.0
2014-Dec-12 11:32N 33°37' E 130°21'0 0.0
2014-Dec-12 10:32N 33°37' E 130°21'0 0.0
2014-Dec-12 09:32N 33°37' E 130°21'0 0.0
2014-Dec-12 08:29N 33°37' E 130°21'0 0.1
2014-Dec-12 07:29N 33°37' E 130°21'0 0.0
2014-Dec-12 06:17N 33°37' E 130°21'0 0.1
2014-Dec-12 05:29N 33°37' E 130°21'3 3.7
2014-Dec-12 04:33N 33°39' E 130°18'1211.9
2014-Dec-12 03:33N 33°51' E 130°21'  
Track history (hours):
 
Tides and Currents Weather Stations Pressure Air Temp Water Temp Dewpoint Dewpoint Depression Visibility Wind Speed Wind Dir Waves Ship Positions

Naniwa Maru No.21

Last reported at 2014-Dec-22 03:11 UTC. Time now 2014-Dec-22 09:14 UTC.
Position N 34°07' E 135°08'.

Length 71 m; draft 5.2 m.

Type: Tanker. MMSI: 431301595.

Date/timePositionNaut miles runAvg speedWind from/ knotsBaromVisibWave heightAir tempDewpointWater temp
2014-Dec-22 03:11N 34°07' E 135°08'1 1.0
2014-Dec-22 02:33N 34°07' E 135°08'7 7.0
2014-Dec-22 01:32N 34°12' E 135°02'2311.7
2014-Dec-21 23:33N 34°35' E 135°03'9 8.7
2014-Dec-21 22:32N 34°34' E 134°52'22812.0
2014-Dec-21 03:28N 33°48' E 130°22'1010.5
2014-Dec-21 02:33N 33°38' E 130°19'3 3.5
2014-Dec-21 01:33N 33°36' E 130°23'0 0.0
2014-Dec-21 00:32N 33°36' E 130°23'0 0.0
2014-Dec-20 23:33N 33°36' E 130°23'0 0.0
2014-Dec-20 22:33N 33°36' E 130°23'2 1.7
2014-Dec-20 21:33N 33°37' E 130°21'0 0.2
2014-Dec-20 20:32N 33°37' E 130°21'0 0.0
2014-Dec-20 19:33N 33°37' E 130°21'0 0.1
2014-Dec-20 18:33N 33°37' E 130°21'0 0.0
2014-Dec-20 17:32N 33°37' E 130°21'0 0.0
2014-Dec-20 16:31N 33°37' E 130°21'0 0.0
2014-Dec-20 15:33N 33°37' E 130°21'0 0.0
2014-Dec-20 13:33N 33°37' E 130°21'9 8.9
2014-Dec-20 12:30N 33°46' E 130°18'23811.3
2014-Dec-19 15:31N 34°38' E 134°59'8 8.0
2014-Dec-19 14:33N 34°31' E 135°04'1312.6
2014-Dec-19 13:31N 34°19' E 134°60'1211.7
2014-Dec-19 12:30N 34°08' E 135°07'1 0.1
2014-Dec-19 06:26N 34°08' E 135°07'0 0.1
2014-Dec-19 05:33N 34°07' E 135°07'0 0.1
2014-Dec-19 04:34N 34°07' E 135°07'1 0.9
2014-Dec-19 03:33N 34°08' E 135°06'23611.8
2014-Dec-18 07:32N 33°48' E 130°22'10 9.6
2014-Dec-18 06:33N 33°39' E 130°19'5 5.0
2014-Dec-18 05:33N 33°37' E 130°24'0 0.0
2014-Dec-18 04:33N 33°37' E 130°24'0 0.0
2014-Dec-18 03:32N 33°37' E 130°24'0 0.0
2014-Dec-18 02:33N 33°37' E 130°24'0 0.0
2014-Dec-18 01:33N 33°37' E 130°24'0 0.0
2014-Dec-18 00:33N 33°37' E 130°24'0 0.0
2014-Dec-17 23:33N 33°37' E 130°24'0 0.0
2014-Dec-17 22:33N 33°37' E 130°24'0 0.0
2014-Dec-17 21:34N 33°37' E 130°24'0 0.0
2014-Dec-17 20:32N 33°37' E 130°24'0 0.0
2014-Dec-17 19:32N 33°37' E 130°24'0 0.0
2014-Dec-17 18:32N 33°37' E 130°24'0 0.0
2014-Dec-17 17:33N 33°37' E 130°24'0 0.0
2014-Dec-17 16:33N 33°37' E 130°24'0 0.0
2014-Dec-17 15:32N 33°37' E 130°24'0 0.0
2014-Dec-17 14:32N 33°37' E 130°24'0 0.0
2014-Dec-17 13:32N 33°37' E 130°24'0 0.0
2014-Dec-17 12:33N 33°37' E 130°24'0 0.0
2014-Dec-17 11:33N 33°37' E 130°24'0 0.0
2014-Dec-17 10:32N 33°37' E 130°24'0 0.0
2014-Dec-17 09:33N 33°37' E 130°24'0 0.0
2014-Dec-17 08:31N 33°37' E 130°24'0 0.0
2014-Dec-17 07:32N 33°37' E 130°24'0 0.0
2014-Dec-17 06:34N 33°37' E 130°24'0 0.0
2014-Dec-17 05:32N 33°37' E 130°24'0 0.0
2014-Dec-17 04:32N 33°37' E 130°24'0 0.0
2014-Dec-17 03:33N 33°37' E 130°24'0 0.0
2014-Dec-17 02:33N 33°37' E 130°24'0 0.0
2014-Dec-17 01:33N 33°37' E 130°24'0 0.0
2014-Dec-17 00:29N 33°37' E 130°24'0 0.0
2014-Dec-16 23:33N 33°37' E 130°24'0 0.0
2014-Dec-16 22:32N 33°37' E 130°24'0 0.0
2014-Dec-16 21:33N 33°37' E 130°24'0 0.0
2014-Dec-16 20:33N 33°37' E 130°24'0 0.0
2014-Dec-16 19:32N 33°37' E 130°24'0 0.0
2014-Dec-16 18:32N 33°37' E 130°24'0 0.0
2014-Dec-16 17:32N 33°37' E 130°24'0 0.0
2014-Dec-16 16:33N 33°37' E 130°24'0 0.0
2014-Dec-16 15:33N 33°37' E 130°24'0 0.0
2014-Dec-16 14:33N 33°37' E 130°24'0 0.0
2014-Dec-16 13:32N 33°37' E 130°24'0 0.0
2014-Dec-16 12:32N 33°37' E 130°24'0 0.0
2014-Dec-16 11:32N 33°37' E 130°24'0 0.0
2014-Dec-16 10:33N 33°37' E 130°24'0 0.0
2014-Dec-16 09:30N 33°37' E 130°24'0 0.0
2014-Dec-16 08:33N 33°37' E 130°24'0 0.0
2014-Dec-16 07:33N 33°37' E 130°24'0 0.0
2014-Dec-16 06:33N 33°37' E 130°24'1 1.3
2014-Dec-16 05:33N 33°37' E 130°23'1 1.4
2014-Dec-16 04:30N 33°37' E 130°21'0 0.2
2014-Dec-16 03:31N 33°37' E 130°21'2 1.4
2014-Dec-16 02:09N 33°36' E 130°23'0 0.0
2014-Dec-16 01:09N 33°36' E 130°23'0 0.0
2014-Dec-16 00:07N 33°36' E 130°23'0 0.0
2014-Dec-15 23:32N 33°36' E 130°23'1 0.6
2014-Dec-15 22:33N 33°37' E 130°23'2 1.7
2014-Dec-15 21:33N 33°37' E 130°21'0 0.0
2014-Dec-15 20:33N 33°37' E 130°21'0 0.0
2014-Dec-15 19:27N 33°37' E 130°21'0 0.0
2014-Dec-15 18:33N 33°37' E 130°21'0 0.0
2014-Dec-15 17:33N 33°37' E 130°21'0 0.0
2014-Dec-15 16:30N 33°37' E 130°21'0 0.0
2014-Dec-15 15:30N 33°37' E 130°21'0 0.0
2014-Dec-15 14:30N 33°37' E 130°21'3 3.3
2014-Dec-15 13:33N 33°39' E 130°18'1211.6
2014-Dec-15 12:33N 33°50' E 130°20'  
2014-Dec-12 13:17N 33°37' E 130°21'0 0.0
2014-Dec-12 12:17N 33°37' E 130°21'0 0.0
2014-Dec-12 11:32N 33°37' E 130°21'0 0.0
2014-Dec-12 10:32N 33°37' E 130°21'0 0.0
2014-Dec-12 09:32N 33°37' E 130°21'0 0.0
2014-Dec-12 08:29N 33°37' E 130°21'0 0.1
2014-Dec-12 07:29N 33°37' E 130°21'0 0.0
2014-Dec-12 06:17N 33°37' E 130°21'0 0.1
2014-Dec-12 05:29N 33°37' E 130°21'3 3.7
2014-Dec-12 04:33N 33°39' E 130°18'1211.9
2014-Dec-12 03:33N 33°51' E 130°21'  

Dump ship's entire track history